Time;durP1;ratioP1;P1;durP2;ratioP2;P2;SDS_P1;SDS_P2;PMS_P1;PMS_P2;Temp;Humidity;BMP_temperature;BMP_pressure;BME280_temperature;BME280_humidity;BME280_pressure;Samples;Min_cycle;Max_cycle;Signal;HPM_P1;HPM_P2
2021/09/21 00:01:40;;;;;;;;;;;18.10;74.60;;;;;;4289777;33;45944;-81
2021/09/21 00:04:09;;;;;;;;;;;18.10;74.60;;;;;;4301025;33;43509;-81
2021/09/21 00:06:48;;;;;;;;;;;18.10;74.60;;;;;;4300626;33;20007;-81
2021/09/21 00:09:18;;;;;;;;;;;18.10;74.60;;;;;;4299764;33;42918;-81
2021/09/21 00:11:54;;;;;;;;;;;18.10;74.70;;;;;;4301237;33;43293;-81
2021/09/21 00:14:24;;;;;;;;;;;18.10;74.70;;;;;;4301079;33;43941;-81
2021/09/21 00:16:51;;;;;;;;;;;18.10;74.70;;;;;;4288150;33;44319;-81
2021/09/21 00:19:24;;;;;;;;;;;18.10;74.70;;;;;;4300900;33;45905;-81
2021/09/21 00:21:56;;;;;;;;;;;18.10;74.70;;;;;;4287497;33;44251;-81
2021/09/21 00:24:35;;;;;;;;;;;18.10;74.90;;;;;;4300972;33;44069;-81
2021/09/21 00:27:08;;;;;;;;;;;18.00;74.80;;;;;;4290149;33;44173;-81
2021/09/21 00:29:40;;;;;;;;;;;18.00;74.50;;;;;;4290477;33;43270;-81
2021/09/21 00:32:18;;;;;;;;;;;18.00;74.70;;;;;;4302243;33;44643;-81
2021/09/21 00:34:54;;;;;;;;;;;18.00;74.80;;;;;;4290597;33;45851;-81
2021/09/21 00:37:24;;;;;;;;;;;17.90;74.80;;;;;;4291209;33;20034;-81
2021/09/21 00:39:54;;;;;;;;;;;17.90;74.80;;;;;;4290331;33;43284;-82
2021/09/21 00:42:31;;;;;;;;;;;17.90;74.90;;;;;;4302951;33;43371;-81
2021/09/21 00:45:07;;;;;;;;;;;17.90;75.00;;;;;;4303471;33;43235;-81
2021/09/21 00:47:43;;;;;;;;;;;17.90;75.20;;;;;;4302069;33;43086;-81
2021/09/21 00:50:10;;;;;;;;;;;17.90;75.30;;;;;;4301822;33;44100;-81
2021/09/21 00:52:46;;;;;;;;;;;17.90;75.20;;;;;;4290430;33;44264;-80
2021/09/21 00:55:18;;;;;;;;;;;17.80;75.00;;;;;;4303180;33;43707;-81
2021/09/21 00:57:51;;;;;;;;;;;17.80;75.20;;;;;;4290190;33;44211;-81
2021/09/21 01:00:24;;;;;;;;;;;17.90;75.40;;;;;;4290260;33;43273;-82
2021/09/21 01:02:57;;;;;;;;;;;17.80;75.40;;;;;;4289537;33;42627;-81
2021/09/21 01:05:24;;;;;;;;;;;17.80;75.50;;;;;;4303266;33;43279;-81
2021/09/21 01:07:54;;;;;;;;;;;17.80;75.50;;;;;;4302954;33;44292;-81
2021/09/21 01:10:27;;;;;;;;;;;17.80;75.60;;;;;;4290045;33;43970;-82
2021/09/21 01:13:00;;;;;;;;;;;17.80;75.60;;;;;;4289502;33;44266;-81
2021/09/21 01:15:29;;;;;;;;;;;17.80;75.80;;;;;;4301979;33;43411;-81
2021/09/21 01:18:02;;;;;;;;;;;17.80;75.70;;;;;;4302399;33;43908;-81
2021/09/21 01:20:38;;;;;;;;;;;17.80;75.80;;;;;;4289600;33;44655;-81
2021/09/21 01:23:07;;;;;;;;;;;17.70;75.80;;;;;;4301963;33;43157;-81
2021/09/21 01:25:34;;;;;;;;;;;17.70;75.90;;;;;;4289507;33;45691;-82
2021/09/21 01:28:05;;;;;;;;;;;17.70;76.00;;;;;;4289645;33;43245;-81
2021/09/21 01:30:35;;;;;;;;;;;17.70;76.00;;;;;;4302835;33;44510;-81
2021/09/21 01:33:04;;;;;;;;;;;17.70;76.00;;;;;;4302139;33;43758;-81
2021/09/21 01:35:31;;;;;;;;;;;17.70;76.10;;;;;;4301624;33;45088;-81
2021/09/21 01:38:01;;;;;;;;;;;17.70;76.20;;;;;;4303219;33;20053;-82
2021/09/21 01:40:28;;;;;;;;;;;17.70;76.20;;;;;;4302611;33;43236;-81
2021/09/21 01:43:04;;;;;;;;;;;17.70;76.20;;;;;;4289441;33;42832;-81
2021/09/21 01:45:37;;;;;;;;;;;17.70;76.30;;;;;;4302652;33;44326;-81
2021/09/21 01:48:09;;;;;;;;;;;17.60;76.20;;;;;;4302144;33;44115;-81
2021/09/21 01:58:46;;;;;;;;;;;17.60;76.40;;;;;;4302031;33;43482;-81
2021/09/21 02:01:23;;;;;;;;;;;17.60;76.40;;;;;;4302045;33;42100;-81
2021/09/21 02:03:55;;;;;;;;;;;17.60;76.50;;;;;;4302227;33;43498;-81
2021/09/21 02:06:44;;;;;;;;;;;17.60;76.70;;;;;;4302295;33;44554;-81
2021/09/21 02:09:15;;;;;;;;;;;17.60;76.70;;;;;;4303250;33;19994;-82
2021/09/21 02:11:46;;;;;;;;;;;17.60;76.70;;;;;;4301827;33;45120;-81
2021/09/21 02:14:14;;;;;;;;;;;17.50;76.70;;;;;;4302089;33;42719;-81
2021/09/21 02:16:46;;;;;;;;;;;17.50;76.70;;;;;;4289079;33;44175;-81
2021/09/21 02:19:18;;;;;;;;;;;17.50;76.70;;;;;;4288640;33;42974;-81
2021/09/21 02:21:45;;;;;;;;;;;17.50;76.80;;;;;;4300886;33;44784;-81
2021/09/21 02:24:18;;;;;;;;;;;17.50;76.80;;;;;;4301787;33;42953;-81
2021/09/21 02:26:45;;;;;;;;;;;17.50;76.90;;;;;;4301700;33;43697;-81
2021/09/21 02:29:12;;;;;;;;;;;17.50;76.80;;;;;;4301491;33;44215;-81
2021/09/21 02:31:45;;;;;;;;;;;17.50;76.80;;;;;;4301499;33;45770;-81
2021/09/21 02:34:21;;;;;;;;;;;17.40;76.90;;;;;;4301474;33;42395;-81
2021/09/21 02:36:56;;;;;;;;;;;17.50;77.00;;;;;;4288796;33;45009;-81
2021/09/21 02:39:23;;;;;;;;;;;17.40;76.90;;;;;;4301345;33;19990;-81
2021/09/21 02:41:53;;;;;;;;;;;17.40;77.00;;;;;;4288970;33;43828;-81
2021/09/21 02:44:25;;;;;;;;;;;17.40;77.00;;;;;;4301483;33;43562;-81
2021/09/21 02:46:52;;;;;;;;;;;17.40;77.10;;;;;;4301740;33;43565;-81
2021/09/21 02:49:25;;;;;;;;;;;17.40;77.10;;;;;;4288738;33;43416;-82
2021/09/21 02:51:58;;;;;;;;;;;17.40;77.10;;;;;;4288600;33;44157;-81
2021/09/21 02:54:33;;;;;;;;;;;17.40;77.20;;;;;;4288684;33;43273;-82
2021/09/21 02:57:01;;;;;;;;;;;17.40;77.20;;;;;;4288818;33;44156;-81
2021/09/21 02:59:34;;;;;;;;;;;17.40;77.30;;;;;;4288451;33;42363;-81
2021/09/21 03:02:05;;;;;;;;;;;17.30;77.40;;;;;;4300887;33;44262;-81
2021/09/21 03:04:38;;;;;;;;;;;17.40;77.50;;;;;;4300541;33;43897;-81
2021/09/21 03:07:14;;;;;;;;;;;17.30;77.50;;;;;;4288714;33;43600;-81
2021/09/21 03:17:36;;;;;;;;;;;17.30;77.60;;;;;;4301530;33;44376;-81
2021/09/21 03:20:03;;;;;;;;;;;17.30;77.70;;;;;;4288391;33;44850;-81
2021/09/21 03:22:33;;;;;;;;;;;17.30;77.60;;;;;;4301161;33;44159;-81
2021/09/21 03:25:04;;;;;;;;;;;17.30;77.70;;;;;;4301397;33;43971;-81
2021/09/21 03:27:36;;;;;;;;;;;17.30;78.60;;;;;;4301149;33;44219;-82
2021/09/21 03:30:06;;;;;;;;;;;17.30;77.80;;;;;;4288628;33;43936;-82
2021/09/21 03:32:33;;;;;;;;;;;17.20;77.80;;;;;;4300381;33;43185;-81
2021/09/21 03:35:05;;;;;;;;;;;17.20;77.90;;;;;;4301207;33;43197;-81
2021/09/21 03:37:33;;;;;;;;;;;17.20;78.00;;;;;;4287965;33;43148;-81
2021/09/21 03:40:00;;;;;;;;;;;17.20;78.00;;;;;;4302344;33;20333;-81
2021/09/21 03:42:27;;;;;;;;;;;17.20;78.10;;;;;;4301247;33;43922;-81
2021/09/21 03:44:59;;;;;;;;;;;17.20;78.10;;;;;;4300979;33;42898;-81
2021/09/21 03:47:32;;;;;;;;;;;17.20;78.10;;;;;;4288107;33;42544;-81
2021/09/21 03:50:03;;;;;;;;;;;17.20;78.20;;;;;;4288293;33;44662;-81
2021/09/21 03:52:33;;;;;;;;;;;17.20;78.20;;;;;;4301235;33;43281;-81
2021/09/21 03:55:03;;;;;;;;;;;17.20;78.30;;;;;;4287826;33;44271;-81
2021/09/21 03:57:36;;;;;;;;;;;17.10;78.30;;;;;;4288382;33;42132;-81
2021/09/21 04:00:11;;;;;;;;;;;17.20;78.30;;;;;;4290090;33;45058;-81
2021/09/21 04:02:46;;;;;;;;;;;17.10;78.20;;;;;;4302421;33;44203;-81
2021/09/21 04:05:21;;;;;;;;;;;17.10;78.30;;;;;;4302856;33;43981;-81
2021/09/21 04:07:50;;;;;;;;;;;17.10;78.40;;;;;;4303922;33;43116;-81
2021/09/21 04:10:23;;;;;;;;;;;17.10;78.50;;;;;;4291419;33;19995;-81
2021/09/21 04:12:55;;;;;;;;;;;17.10;78.50;;;;;;4302660;33;44267;-81
2021/09/21 04:15:28;;;;;;;;;;;17.00;78.50;;;;;;4303860;33;43271;-81
2021/09/21 04:18:04;;;;;;;;;;;17.00;78.60;;;;;;4290447;33;44974;-81
2021/09/21 04:20:37;;;;;;;;;;;17.00;78.50;;;;;;4303931;33;44240;-81
2021/09/21 04:23:04;;;;;;;;;;;17.00;78.70;;;;;;4303579;33;44990;-82
2021/09/21 04:25:34;;;;;;;;;;;17.00;78.60;;;;;;4303794;33;43157;-81
2021/09/21 04:28:07;;;;;;;;;;;17.00;78.70;;;;;;4290458;33;44294;-81
2021/09/21 04:30:39;;;;;;;;;;;16.90;78.60;;;;;;4290080;33;43551;-81
2021/09/21 04:33:13;;;;;;;;;;;16.90;78.70;;;;;;4303624;33;43904;-81
2021/09/21 04:35:52;;;;;;;;;;;16.90;78.80;;;;;;4303373;33;43366;-81
2021/09/21 04:38:27;;;;;;;;;;;16.90;78.80;;;;;;4303507;33;45125;-81
2021/09/21 04:40:54;;;;;;;;;;;16.90;78.90;;;;;;4304574;33;19994;-81
2021/09/21 04:43:28;;;;;;;;;;;16.90;79.10;;;;;;4290612;33;43151;-81
2021/09/21 04:45:55;;;;;;;;;;;16.90;79.10;;;;;;4302998;33;44914;-81
2021/09/21 04:48:22;;;;;;;;;;;16.80;79.20;;;;;;4303203;33;43842;-81
2021/09/21 04:50:53;;;;;;;;;;;16.90;79.30;;;;;;4289940;33;43194;-81
2021/09/21 04:53:28;;;;;;;;;;;16.80;79.30;;;;;;4303215;33;43596;-81
2021/09/21 04:55:58;;;;;;;;;;;16.90;79.50;;;;;;4302909;33;44047;-81
2021/09/21 04:58:31;;;;;;;;;;;16.80;79.50;;;;;;4290259;33;42280;-81
2021/09/21 05:00:58;;;;;;;;;;;16.80;79.60;;;;;;4302791;33;43976;-81
2021/09/21 05:03:33;;;;;;;;;;;16.90;79.70;;;;;;4289839;33;44275;-81
2021/09/21 05:06:03;;;;;;;;;;;16.80;79.70;;;;;;4290049;33;44716;-81
2021/09/21 05:08:36;;;;;;;;;;;16.80;79.80;;;;;;4303280;33;43936;-81
2021/09/21 05:11:06;;;;;;;;;;;16.80;79.80;;;;;;4290590;33;20038;-81
2021/09/21 05:13:36;;;;;;;;;;;16.80;79.90;;;;;;4302733;33;43452;-81
2021/09/21 05:16:07;;;;;;;;;;;16.80;80.00;;;;;;4290268;33;43846;-81
2021/09/21 05:18:39;;;;;;;;;;;16.80;79.90;;;;;;4302869;33;44133;-81
2021/09/21 05:21:12;;;;;;;;;;;16.80;80.10;;;;;;4302720;33;44101;-81
2021/09/21 05:23:45;;;;;;;;;;;16.80;80.10;;;;;;4302637;33;44319;-81
2021/09/21 05:26:16;;;;;;;;;;;16.80;80.10;;;;;;4302918;33;44216;-81
2021/09/21 05:28:49;;;;;;;;;;;16.80;80.20;;;;;;4301714;33;44325;-81
2021/09/21 05:31:24;;;;;;;;;;;16.80;80.20;;;;;;4289238;33;45279;-81
2021/09/21 05:33:53;;;;;;;;;;;16.80;80.30;;;;;;4302200;33;42552;-82
2021/09/21 05:36:20;;;;;;;;;;;16.80;80.40;;;;;;4289134;33;45792;-81
2021/09/21 05:38:50;;;;;;;;;;;16.80;80.40;;;;;;4302176;33;42728;-81
2021/09/21 05:41:17;;;;;;;;;;;16.80;80.50;;;;;;4303745;33;20003;-81
2021/09/21 05:43:47;;;;;;;;;;;16.70;80.50;;;;;;4290056;33;43252;-82
2021/09/21 05:46:21;;;;;;;;;;;16.80;80.50;;;;;;4301148;33;43166;-81
2021/09/21 05:48:52;;;;;;;;;;;16.70;80.50;;;;;;4302531;33;45203;-81
2021/09/21 05:51:19;;;;;;;;;;;16.80;80.60;;;;;;4301312;33;44357;-82
2021/09/21 05:53:46;;;;;;;;;;;16.70;80.60;;;;;;4302232;33;44163;-81
2021/09/21 05:56:21;;;;;;;;;;;16.70;80.70;;;;;;4289356;33;44184;-81
2021/09/21 05:58:53;;;;;;;;;;;16.80;80.80;;;;;;4301431;33;44871;-81
2021/09/21 06:01:20;;;;;;;;;;;16.70;80.70;;;;;;4289209;33;44286;-81
2021/09/21 06:03:48;;;;;;;;;;;16.70;80.80;;;;;;4301300;33;44204;-81
2021/09/21 06:06:15;;;;;;;;;;;16.70;80.90;;;;;;4300722;33;44148;-81
2021/09/21 06:08:47;;;;;;;;;;;16.70;81.00;;;;;;4302311;33;43203;-81
2021/09/21 06:11:20;;;;;;;;;;;16.70;81.00;;;;;;4301742;33;44126;-81
2021/09/21 06:13:50;;;;;;;;;;;16.70;81.00;;;;;;4288658;33;43291;-81
2021/09/21 06:16:18;;;;;;;;;;;16.70;81.00;;;;;;4302125;33;44012;-81
2021/09/21 06:18:48;;;;;;;;;;;16.70;81.10;;;;;;4288679;33;44191;-81
2021/09/21 06:21:15;;;;;;;;;;;16.70;81.20;;;;;;4301774;33;42640;-81
2021/09/21 06:23:45;;;;;;;;;;;16.70;81.20;;;;;;4300516;33;43466;-81
2021/09/21 06:26:15;;;;;;;;;;;16.60;81.20;;;;;;4300932;33;43906;-81
2021/09/21 06:28:45;;;;;;;;;;;16.60;81.30;;;;;;4302098;33;45565;-81
2021/09/21 06:31:12;;;;;;;;;;;16.60;81.30;;;;;;4301444;33;42891;-81
2021/09/21 06:33:39;;;;;;;;;;;16.60;81.40;;;;;;4300278;33;43456;-81
2021/09/21 06:36:17;;;;;;;;;;;16.60;81.40;;;;;;4288643;33;43080;-81
2021/09/21 06:38:50;;;;;;;;;;;16.60;81.50;;;;;;4301390;33;42850;-81
2021/09/21 06:41:22;;;;;;;;;;;16.60;81.50;;;;;;4288587;33;44084;-81
2021/09/21 06:43:51;;;;;;;;;;;16.60;81.60;;;;;;4288694;33;45156;-81
2021/09/21 06:46:24;;;;;;;;;;;16.60;81.70;;;;;;4288205;33;43909;-81
2021/09/21 06:48:51;;;;;;;;;;;16.60;81.80;;;;;;4301838;33;45572;-81
2021/09/21 06:51:19;;;;;;;;;;;16.60;81.90;;;;;;4288171;33;44749;-81
2021/09/21 06:53:46;;;;;;;;;;;16.60;82.00;;;;;;4288230;33;44075;-81
2021/09/21 06:56:13;;;;;;;;;;;16.60;82.10;;;;;;4288367;33;44042;-81
2021/09/21 06:58:43;;;;;;;;;;;16.50;82.10;;;;;;4300268;33;44267;-81
2021/09/21 07:01:12;;;;;;;;;;;16.60;82.20;;;;;;4299930;33;45054;-81
2021/09/21 07:03:39;;;;;;;;;;;16.60;82.20;;;;;;4301491;33;43472;-81
2021/09/21 07:06:07;;;;;;;;;;;16.60;82.30;;;;;;4288371;33;44802;-81
2021/09/21 07:08:34;;;;;;;;;;;16.50;82.10;;;;;;4288335;33;43805;-81
2021/09/21 07:11:01;;;;;;;;;;;16.50;82.10;;;;;;4301090;33;43820;-81
2021/09/21 07:13:30;;;;;;;;;;;16.50;82.10;;;;;;4288252;33;45727;-81
2021/09/21 07:16:00;;;;;;;;;;;16.50;82.20;;;;;;4300162;33;42617;-81
2021/09/21 07:18:27;;;;;;;;;;;16.50;82.40;;;;;;4288070;33;44200;-81
2021/09/21 07:21:02;;;;;;;;;;;16.50;82.40;;;;;;4288416;33;44144;-81
2021/09/21 07:23:32;;;;;;;;;;;16.50;83.20;;;;;;4301360;33;43453;-81
2021/09/21 07:26:07;;;;;;;;;;;16.50;82.50;;;;;;4287802;33;44296;-81
2021/09/21 07:28:38;;;;;;;;;;;16.40;82.50;;;;;;4289012;33;43340;-81
2021/09/21 07:31:06;;;;;;;;;;;16.40;82.50;;;;;;4300737;33;43389;-81
2021/09/21 07:33:33;;;;;;;;;;;16.40;82.50;;;;;;4300997;33;43003;-81
2021/09/21 07:36:08;;;;;;;;;;;16.40;82.50;;;;;;4291116;33;44402;-81
2021/09/21 07:38:38;;;;;;;;;;;16.40;82.50;;;;;;4304133;33;44804;-81
2021/09/21 07:41:05;;;;;;;;;;;16.40;82.50;;;;;;4291601;33;42788;-81
2021/09/21 07:43:43;;;;;;;;;;;16.40;82.60;;;;;;4302655;33;42945;-81
2021/09/21 07:46:11;;;;;;;;;;;16.40;82.60;;;;;;4290562;33;44165;-81
2021/09/21 07:48:46;;;;;;;;;;;16.40;82.70;;;;;;4304031;33;45138;-81
2021/09/21 07:51:15;;;;;;;;;;;16.40;82.70;;;;;;4291126;33;44044;-81
2021/09/21 07:53:48;;;;;;;;;;;16.40;82.60;;;;;;4290557;33;45784;-81
2021/09/21 07:56:21;;;;;;;;;;;16.40;82.70;;;;;;4290693;33;42265;-81
2021/09/21 07:58:53;;;;;;;;;;;16.40;82.70;;;;;;4303651;33;43105;-81
2021/09/21 08:01:21;;;;;;;;;;;16.40;82.70;;;;;;4290039;33;45551;-81
2021/09/21 08:03:55;;;;;;;;;;;16.40;82.60;;;;;;4290913;33;44207;-81
2021/09/21 08:06:25;;;;;;;;;;;16.40;82.60;;;;;;4289753;33;44536;-81
2021/09/21 08:08:52;;;;;;;;;;;16.40;82.60;;;;;;4289651;33;44675;-81
2021/09/21 08:11:22;;;;;;;;;;;16.40;82.70;;;;;;4289845;33;45792;-81
2021/09/21 08:13:49;;;;;;;;;;;16.40;82.60;;;;;;4289321;33;45143;-81
2021/09/21 08:16:17;;;;;;;;;;;16.40;82.70;;;;;;4289310;33;45094;-81
2021/09/21 08:18:44;;;;;;;;;;;16.40;82.70;;;;;;4301566;33;42697;-81
2021/09/21 08:21:17;;;;;;;;;;;16.40;82.80;;;;;;4301221;33;43377;-81
2021/09/21 08:23:47;;;;;;;;;;;16.40;82.70;;;;;;4289679;33;44216;-81
2021/09/21 08:26:25;;;;;;;;;;;16.40;82.70;;;;;;4289572;33;44186;-81
2021/09/21 08:28:57;;;;;;;;;;;16.40;82.70;;;;;;4289772;33;43281;-81
2021/09/21 08:31:27;;;;;;;;;;;16.40;82.70;;;;;;4302916;33;44471;-81
2021/09/21 08:33:59;;;;;;;;;;;16.40;82.50;;;;;;4289309;33;43894;-81
2021/09/21 08:36:31;;;;;;;;;;;16.40;82.50;;;;;;4302726;33;45008;-81
2021/09/21 08:39:06;;;;;;;;;;;16.40;82.40;;;;;;4302617;33;45798;-82
2021/09/21 08:41:39;;;;;;;;;;;16.50;82.30;;;;;;4302619;33;44267;-81
2021/09/21 08:44:11;;;;;;;;;;;16.50;82.30;;;;;;4303448;33;20071;-82
2021/09/21 08:46:44;;;;;;;;;;;16.50;82.20;;;;;;4288982;33;44180;-81
2021/09/21 08:49:13;;;;;;;;;;;16.50;82.00;;;;;;4302547;33;45169;-81
2021/09/21 08:51:41;;;;;;;;;;;16.50;82.10;;;;;;4302342;33;44813;-81
2021/09/21 08:54:14;;;;;;;;;;;16.50;82.00;;;;;;4302393;33;43207;-81
2021/09/21 08:56:43;;;;;;;;;;;16.50;81.80;;;;;;4302220;33;42775;-81
2021/09/21 08:59:12;;;;;;;;;;;16.50;81.80;;;;;;4288918;33;46007;-81
2021/09/21 09:01:45;;;;;;;;;;;16.50;81.70;;;;;;4289257;33;45250;-81
2021/09/21 09:04:19;;;;;;;;;;;16.50;81.60;;;;;;4290220;33;43478;-81
2021/09/21 09:06:50;;;;;;;;;;;16.50;81.60;;;;;;4289962;33;42952;-81
2021/09/21 09:09:20;;;;;;;;;;;16.60;81.70;;;;;;4303055;33;45342;-81
2021/09/21 09:11:51;;;;;;;;;;;16.50;81.50;;;;;;4303125;33;43989;-81
2021/09/21 09:14:24;;;;;;;;;;;16.50;81.50;;;;;;4290913;33;20325;-81
2021/09/21 09:16:56;;;;;;;;;;;16.50;81.50;;;;;;4303005;33;42423;-81
2021/09/21 09:19:33;;;;;;;;;;;16.60;81.50;;;;;;4303352;33;43286;-81
2021/09/21 09:22:09;;;;;;;;;;;16.50;81.30;;;;;;4289936;33;45853;-81
2021/09/21 09:24:48;;;;;;;;;;;16.60;81.40;;;;;;4303097;33;43845;-81
2021/09/21 09:27:39;;;;;;;;;;;16.60;81.40;;;;;;4289804;33;43849;-81
2021/09/21 09:30:14;;;;;;;;;;;16.60;81.30;;;;;;4298215;33;44818;-81
2021/09/21 09:32:49;;;;;;;;;;;16.60;81.10;;;;;;4302754;33;44654;-81
2021/09/21 09:35:35;;;;;;;;;;;16.60;81.00;;;;;;4289615;33;45792;-81
2021/09/21 09:38:15;;;;;;;;;;;16.60;81.70;;;;;;4289583;33;42661;-81
2021/09/21 09:40:46;;;;;;;;;;;16.60;80.90;;;;;;4289676;33;44596;-81
2021/09/21 09:43:15;;;;;;;;;;;16.60;80.90;;;;;;4302629;33;44658;-81
2021/09/21 09:45:44;;;;;;;;;;;16.60;80.90;;;;;;4302960;33;20003;-81
2021/09/21 09:48:14;;;;;;;;;;;16.60;80.90;;;;;;4301444;33;44219;-81
2021/09/21 09:50:42;;;;;;;;;;;16.60;80.80;;;;;;4288995;33;43307;-81
2021/09/21 09:53:09;;;;;;;;;;;16.60;80.90;;;;;;4289487;33;45253;-81
2021/09/21 09:55:37;;;;;;;;;;;16.60;80.90;;;;;;4289493;33;43865;-81
2021/09/21 09:58:04;;;;;;;;;;;16.70;80.80;;;;;;4288409;33;44877;-81
2021/09/21 10:00:32;;;;;;;;;;;16.70;80.70;;;;;;4289382;33;43883;-81
2021/09/21 10:03:00;;;;;;;;;;;16.70;80.80;;;;;;4301911;33;43262;-81
2021/09/21 10:05:32;;;;;;;;;;;16.70;80.70;;;;;;4302295;33;45677;-81
2021/09/21 10:07:59;;;;;;;;;;;16.70;80.60;;;;;;4302000;33;43800;-81
2021/09/21 10:10:30;;;;;;;;;;;16.70;80.40;;;;;;4289046;33;43285;-81
2021/09/21 10:13:01;;;;;;;;;;;16.70;80.50;;;;;;4289033;33;43290;-81
2021/09/21 10:15:29;;;;;;;;;;;16.70;80.60;;;;;;4301598;33;43042;-81
2021/09/21 10:17:57;;;;;;;;;;;16.70;80.70;;;;;;4301732;33;43373;-81
2021/09/21 10:20:31;;;;;;;;;;;16.70;80.80;;;;;;4289018;33;43542;-81
2021/09/21 10:22:58;;;;;;;;;;;16.70;80.80;;;;;;4302041;33;43478;-81
2021/09/21 10:25:27;;;;;;;;;;;16.80;80.80;;;;;;4288556;33;43315;-81
2021/09/21 10:28:14;;;;;;;;;;;16.70;80.80;;;;;;4291124;33;44750;-81
2021/09/21 10:30:52;;;;;;;;;;;16.80;80.80;;;;;;4288413;33;44657;-81
2021/09/21 10:33:22;;;;;;;;;;;16.80;80.90;;;;;;4301441;33;42859;-81
2021/09/21 10:35:52;;;;;;;;;;;16.80;80.80;;;;;;4300760;33;43852;-81
2021/09/21 10:38:19;;;;;;;;;;;16.80;81.10;;;;;;4301816;33;44222;-81
2021/09/21 10:40:52;;;;;;;;;;;16.80;81.10;;;;;;4300435;33;42870;-81
2021/09/21 10:43:20;;;;;;;;;;;16.80;81.20;;;;;;4301526;33;42974;-81
2021/09/21 10:45:51;;;;;;;;;;;16.90;81.20;;;;;;4288289;33;43643;-81
2021/09/21 10:48:20;;;;;;;;;;;16.90;81.10;;;;;;4301781;33;43764;-81
2021/09/21 10:50:55;;;;;;;;;;;16.90;81.20;;;;;;4288735;33;43717;-80
2021/09/21 10:53:23;;;;;;;;;;;16.90;81.10;;;;;;4301333;33;43290;-81
2021/09/21 10:56:02;;;;;;;;;;;16.90;81.00;;;;;;4301449;33;43636;-81
2021/09/21 10:58:29;;;;;;;;;;;16.90;81.10;;;;;;4288177;33;43098;-80
2021/09/21 11:00:56;;;;;;;;;;;16.90;81.10;;;;;;4288108;33;43495;-81
2021/09/21 11:03:25;;;;;;;;;;;17.00;81.10;;;;;;4288489;33;43758;-81
2021/09/21 11:05:56;;;;;;;;;;;17.00;81.10;;;;;;4288667;33;44896;-81
2021/09/21 11:08:44;;;;;;;;;;;17.00;81.00;;;;;;4300576;33;45787;-81
2021/09/21 11:11:11;;;;;;;;;;;17.00;81.00;;;;;;4288479;33;44906;-80
2021/09/21 11:13:43;;;;;;;;;;;17.10;80.90;;;;;;4301364;33;45395;-81
2021/09/21 11:16:14;;;;;;;;;;;17.10;80.80;;;;;;4301080;33;42672;-81
2021/09/21 11:18:44;;;;;;;;;;;17.10;80.80;;;;;;4301758;33;43611;-81
2021/09/21 11:21:12;;;;;;;;;;;17.10;80.90;;;;;;4301284;33;43954;-81
2021/09/21 11:23:40;;;;;;;;;;;17.10;80.90;;;;;;4287828;33;46010;-81
2021/09/21 11:26:09;;;;;;;;;;;17.10;80.90;;;;;;4288370;33;43478;-80
2021/09/21 11:28:38;;;;;;;;;;;17.10;80.80;;;;;;4301437;33;44156;-81
2021/09/21 11:31:06;;;;;;;;;;;17.20;80.80;;;;;;4288062;33;44979;-81
2021/09/21 11:33:38;;;;;;;;;;;17.20;80.70;;;;;;4300894;33;44316;-80
2021/09/21 11:36:10;;;;;;;;;;;17.20;80.60;;;;;;4301113;33;43885;-81
2021/09/21 11:38:41;;;;;;;;;;;17.20;80.40;;;;;;4300801;33;42908;-80
2021/09/21 11:41:09;;;;;;;;;;;17.20;80.30;;;;;;4301291;33;43494;-81
2021/09/21 11:43:40;;;;;;;;;;;17.20;80.20;;;;;;4301082;33;42670;-80
2021/09/21 11:46:30;;;;;;;;;;;17.30;80.30;;;;;;4290510;33;43507;-80
2021/09/21 11:48:59;;;;;;;;;;;17.30;80.30;;;;;;4301386;33;45370;-80
2021/09/21 11:51:26;;;;;;;;;;;17.30;80.30;;;;;;4288253;33;42784;-81
2021/09/21 11:53:56;;;;;;;;;;;17.40;80.30;;;;;;4301198;33;45984;-80
2021/09/21 11:56:23;;;;;;;;;;;17.40;80.30;;;;;;4287758;33;44713;-81
2021/09/21 11:58:56;;;;;;;;;;;17.40;80.30;;;;;;4287723;33;42797;-81
2021/09/21 12:01:23;;;;;;;;;;;17.40;80.30;;;;;;4301050;33;44639;-81
2021/09/21 12:03:52;;;;;;;;;;;17.50;80.40;;;;;;4301249;33;44200;-81
2021/09/21 12:06:30;;;;;;;;;;;17.50;80.50;;;;;;4300534;33;45178;-81
2021/09/21 12:09:00;;;;;;;;;;;17.50;80.50;;;;;;4300267;33;44225;-80
2021/09/21 12:11:28;;;;;;;;;;;17.60;80.50;;;;;;4288237;33;44504;-81
2021/09/21 12:13:56;;;;;;;;;;;17.60;80.50;;;;;;4300183;33;43867;-80
2021/09/21 12:16:25;;;;;;;;;;;17.60;80.40;;;;;;4287490;33;43695;-80
2021/09/21 12:18:53;;;;;;;;;;;17.70;80.40;;;;;;4301579;33;20050;-80
2021/09/21 12:21:20;;;;;;;;;;;17.70;81.20;;;;;;4302748;33;44145;-80
2021/09/21 12:23:47;;;;;;;;;;;17.70;80.50;;;;;;4303766;33;43323;-80
2021/09/21 12:26:16;;;;;;;;;;;17.70;80.50;;;;;;4290411;33;44995;-80
2021/09/21 12:28:45;;;;;;;;;;;17.80;80.60;;;;;;4290168;33;42982;-80
2021/09/21 12:31:12;;;;;;;;;;;17.80;80.50;;;;;;4303514;33;43098;-80
2021/09/21 12:33:40;;;;;;;;;;;17.80;80.40;;;;;;4303224;33;42667;-80
2021/09/21 12:36:27;;;;;;;;;;;17.90;80.30;;;;;;4303064;33;43051;-80
2021/09/21 12:38:59;;;;;;;;;;;17.90;80.10;;;;;;4303456;33;42725;-80
2021/09/21 12:41:27;;;;;;;;;;;17.90;80.10;;;;;;4303472;33;44592;-80
2021/09/21 12:43:55;;;;;;;;;;;18.00;80.30;;;;;;4303010;33;44077;-81
2021/09/21 12:46:23;;;;;;;;;;;18.00;80.30;;;;;;4289833;33;43481;-80
2021/09/21 12:48:50;;;;;;;;;;;18.00;80.10;;;;;;4302880;33;42812;-80
2021/09/21 12:51:31;;;;;;;;;;;18.10;80.10;;;;;;4302840;33;42987;-80
2021/09/21 12:54:09;;;;;;;;;;;18.10;79.90;;;;;;4302875;33;42586;-80
2021/09/21 12:56:39;;;;;;;;;;;18.10;79.70;;;;;;4302971;33;43775;-80
2021/09/21 12:59:09;;;;;;;;;;;18.10;79.50;;;;;;4289833;33;42987;-80
2021/09/21 13:01:36;;;;;;;;;;;18.10;79.60;;;;;;4302631;33;42237;-80
2021/09/21 13:04:04;;;;;;;;;;;18.20;79.50;;;;;;4289759;33;44176;-80
2021/09/21 13:06:31;;;;;;;;;;;18.20;79.40;;;;;;4301471;33;45701;-80
2021/09/21 13:08:58;;;;;;;;;;;18.20;79.40;;;;;;4301359;33;44978;-80
2021/09/21 13:11:26;;;;;;;;;;;18.30;79.30;;;;;;4302534;33;43086;-80
2021/09/21 13:13:53;;;;;;;;;;;18.30;79.30;;;;;;4302513;33;43931;-80
2021/09/21 13:16:20;;;;;;;;;;;18.30;79.10;;;;;;4302532;33;43169;-80
2021/09/21 13:18:48;;;;;;;;;;;18.40;79.10;;;;;;4289635;33;42683;-80
2021/09/21 13:21:15;;;;;;;;;;;18.40;78.90;;;;;;4302941;33;44343;-81
2021/09/21 13:23:43;;;;;;;;;;;18.40;78.90;;;;;;4302490;33;43971;-79
2021/09/21 13:26:10;;;;;;;;;;;18.40;78.90;;;;;;4301400;33;44162;-80
2021/09/21 13:28:37;;;;;;;;;;;18.50;78.90;;;;;;4289878;33;43963;-80
2021/09/21 13:31:06;;;;;;;;;;;18.50;78.80;;;;;;4301835;33;42884;-80
2021/09/21 13:33:33;;;;;;;;;;;18.50;78.60;;;;;;4301248;33;45590;-80
2021/09/21 13:36:00;;;;;;;;;;;18.60;78.50;;;;;;4289645;33;44208;-80
2021/09/21 13:38:27;;;;;;;;;;;18.60;78.50;;;;;;4302669;33;43432;-80
2021/09/21 13:40:54;;;;;;;;;;;18.60;78.30;;;;;;4302394;33;43955;-80
2021/09/21 13:43:21;;;;;;;;;;;18.60;78.10;;;;;;4289359;33;43979;-81
2021/09/21 13:45:48;;;;;;;;;;;18.70;78.10;;;;;;4302116;33;45137;-80
2021/09/21 13:48:15;;;;;;;;;;;18.70;78.10;;;;;;4302104;33;42274;-80
2021/09/21 13:50:42;;;;;;;;;;;18.70;78.10;;;;;;4301921;33;44909;-80
2021/09/21 13:53:14;;;;;;;;;;;18.80;77.90;;;;;;4302070;33;44088;-80
2021/09/21 13:55:43;;;;;;;;;;;18.80;77.80;;;;;;4301260;33;43497;-80
2021/09/21 13:58:10;;;;;;;;;;;18.80;77.70;;;;;;4302224;33;43473;-80
2021/09/21 14:00:38;;;;;;;;;;;18.90;77.60;;;;;;4289127;33;42912;-80
2021/09/21 14:03:05;;;;;;;;;;;18.90;77.50;;;;;;4301862;33;44840;-80
2021/09/21 14:05:38;;;;;;;;;;;18.90;77.40;;;;;;4300946;33;43920;-80
2021/09/21 14:08:06;;;;;;;;;;;19.00;77.30;;;;;;4301232;33;43986;-80
2021/09/21 14:10:33;;;;;;;;;;;19.00;77.30;;;;;;4301797;33;44231;-80
2021/09/21 14:13:00;;;;;;;;;;;19.00;77.10;;;;;;4289240;33;42609;-80
2021/09/21 14:15:35;;;;;;;;;;;19.10;77.00;;;;;;4288550;33;44248;-80
2021/09/21 14:18:02;;;;;;;;;;;19.10;76.90;;;;;;4301661;33;43951;-80
2021/09/21 14:20:32;;;;;;;;;;;19.10;76.80;;;;;;4288523;33;44335;-80
2021/09/21 14:22:59;;;;;;;;;;;19.10;76.70;;;;;;4300706;33;42475;-80
2021/09/21 14:25:26;;;;;;;;;;;19.20;76.70;;;;;;4301522;33;43813;-80
2021/09/21 14:27:55;;;;;;;;;;;19.20;76.40;;;;;;4301860;33;44117;-80
2021/09/21 14:30:23;;;;;;;;;;;19.20;76.10;;;;;;4288471;33;44113;-80
2021/09/21 14:32:51;;;;;;;;;;;19.30;76.10;;;;;;4302031;33;45433;-80
2021/09/21 14:35:19;;;;;;;;;;;19.30;75.90;;;;;;4288739;33;44252;-80
2021/09/21 14:37:46;;;;;;;;;;;19.30;75.40;;;;;;4301360;33;45814;-80
2021/09/21 14:40:15;;;;;;;;;;;19.30;75.30;;;;;;4301748;33;43496;-80
2021/09/21 14:42:42;;;;;;;;;;;19.40;75.30;;;;;;4300405;33;43478;-80
2021/09/21 14:45:10;;;;;;;;;;;19.40;75.10;;;;;;4301293;33;42565;-80
2021/09/21 14:47:37;;;;;;;;;;;19.40;75.00;;;;;;4301250;33;43030;-80
2021/09/21 14:50:07;;;;;;;;;;;19.40;75.00;;;;;;4300191;33;43488;-80
2021/09/21 14:52:35;;;;;;;;;;;19.40;74.90;;;;;;4288401;33;46091;-80